createdAt,value
2019-04-11T00:01:46.293Z,99.90
2019-04-11T00:04:28.769Z,99.90
2019-04-11T00:07:16.207Z,99.90
2019-04-11T00:10:02.437Z,99.90
2019-04-11T00:12:49.018Z,99.90
2019-04-11T00:15:35.603Z,99.90
2019-04-11T00:18:22.858Z,99.90
2019-04-11T00:21:11.006Z,99.90
2019-04-11T00:23:58.546Z,99.90
2019-04-11T00:26:45.235Z,99.90
2019-04-11T00:29:31.954Z,99.90
2019-04-11T00:32:19.156Z,99.90
2019-04-11T00:35:07.176Z,99.90
2019-04-11T00:37:53.930Z,99.90
2019-04-11T00:40:41.530Z,99.90
2019-04-11T00:43:34.139Z,99.90
2019-04-11T00:46:16.918Z,99.90
2019-04-11T00:49:04.078Z,99.90
2019-04-11T00:51:51.921Z,99.90
2019-04-11T00:54:38.643Z,99.90
2019-04-11T00:57:25.298Z,99.90
2019-04-11T01:00:13.137Z,99.90
2019-04-11T01:02:59.998Z,99.90
2019-04-11T01:05:47.752Z,99.90
2019-04-11T01:11:37.626Z,99.90
2019-04-11T01:14:25.738Z,99.90
2019-04-11T01:17:12.835Z,99.90
2019-04-11T01:19:59.490Z,99.90
2019-04-11T01:22:46.591Z,99.90
2019-04-11T01:25:34.695Z,99.90
2019-04-11T01:28:22.669Z,99.90
2019-04-11T01:31:11.591Z,99.90
2019-04-11T01:33:58.157Z,99.90
2019-04-11T01:36:45.096Z,99.90
2019-04-11T01:39:47.388Z,99.90
2019-04-11T01:42:35.432Z,99.90
2019-04-11T01:45:23.872Z,99.90
2019-04-11T01:48:15.406Z,99.90
2019-04-11T01:51:02.290Z,99.90
2019-04-11T01:53:49.124Z,99.90
2019-04-11T01:56:36.997Z,99.90
2019-04-11T01:59:24.880Z,99.90
2019-04-11T02:02:19.382Z,99.90
2019-04-11T02:05:10.437Z,99.90
2019-04-11T02:07:57.145Z,99.90
2019-04-11T02:10:45.234Z,99.90
2019-04-11T02:13:32.175Z,99.90
2019-04-11T02:16:19.107Z,99.90
2019-04-11T02:19:05.925Z,99.90
2019-04-11T02:21:55.419Z,99.90
2019-04-11T02:24:43.871Z,99.90
2019-04-11T02:27:31.008Z,99.90
2019-04-11T02:30:20.032Z,99.90
2019-04-11T02:33:07.250Z,99.90
2019-04-11T02:35:56.463Z,99.90
2019-04-11T02:38:44.077Z,99.90
2019-04-11T02:41:32.007Z,99.90
2019-04-11T02:44:53.153Z,99.90
2019-04-11T02:47:11.480Z,99.90
2019-04-11T02:49:57.285Z,99.90
2019-04-11T02:52:44.450Z,99.90
2019-04-11T02:55:31.652Z,99.90
2019-04-11T02:58:18.715Z,99.90
2019-04-11T03:01:07.480Z,99.90
2019-04-11T03:03:54.613Z,99.90
2019-04-11T03:06:43.897Z,99.90
2019-04-11T03:09:31.409Z,99.90
2019-04-11T03:12:19.322Z,99.90
2019-04-11T03:15:23.960Z,99.90
2019-04-11T03:18:01.355Z,99.90
2019-04-11T03:20:49.663Z,99.90
2019-04-11T03:23:33.218Z,99.90
2019-04-11T03:26:21.238Z,99.90
2019-04-11T03:29:08.713Z,99.90
2019-04-11T03:32:41.966Z,99.90
2019-04-11T03:35:38.530Z,99.90
2019-04-11T03:40:43.862Z,99.90
2019-04-11T03:43:24.362Z,99.90
2019-04-11T03:46:20.295Z,99.90
2019-04-11T03:48:59.943Z,99.90
2019-04-11T03:51:37.061Z,99.90
2019-04-11T03:54:25.220Z,99.90
2019-04-11T03:57:13.348Z,99.90
2019-04-11T04:00:01.038Z,99.90
2019-04-11T04:02:49.708Z,99.90
2019-04-11T04:05:36.823Z,99.90
2019-04-11T04:08:25.181Z,99.90
2019-04-11T04:11:19.018Z,99.90
2019-04-11T04:14:08.160Z,99.90
2019-04-11T04:17:12.427Z,99.90
2019-04-11T04:20:17.123Z,99.90
2019-04-11T04:23:14.621Z,99.90
2019-04-11T04:26:03.003Z,99.90
2019-04-11T04:28:51.303Z,99.90
2019-04-11T04:31:38.523Z,99.90
2019-04-11T04:34:25.998Z,99.90
2019-04-11T04:37:14.109Z,99.90
2019-04-11T04:40:17.889Z,99.90
2019-04-11T04:42:53.323Z,99.90
2019-04-11T04:45:57.799Z,99.90
2019-04-11T04:48:27.183Z,99.90
2019-04-11T04:51:16.330Z,99.90
2019-04-11T04:54:03.961Z,99.90
2019-04-11T04:56:52.262Z,99.90
2019-04-11T04:59:40.679Z,99.90
2019-04-11T05:02:28.337Z,99.90
2019-04-11T05:05:15.642Z,99.90
2019-04-11T05:08:02.890Z,99.90
2019-04-11T05:10:51.145Z,99.90
2019-04-11T05:13:38.795Z,99.90
2019-04-11T05:16:26.546Z,99.90
2019-04-11T05:19:13.335Z,99.90
2019-04-11T05:21:59.935Z,99.90
2019-04-11T05:24:47.510Z,99.90
2019-04-11T05:27:34.260Z,99.90
2019-04-11T05:30:21.086Z,99.90
2019-04-11T05:33:08.040Z,99.90
2019-04-11T05:35:54.852Z,99.90
2019-04-11T05:38:42.168Z,99.90
2019-04-11T05:41:29.362Z,99.90
2019-04-11T05:44:16.760Z,99.90
2019-04-11T05:47:05.618Z,99.90
2019-04-11T05:50:01.006Z,98.30
2019-04-11T05:52:48.260Z,94.10
2019-04-11T05:55:36.353Z,91.20
2019-04-11T05:58:24.067Z,85.50
2019-04-11T06:01:18.493Z,79.30
2019-04-11T06:04:24.136Z,76.80
2019-04-11T06:07:25.079Z,75.60
2019-04-11T06:10:14.702Z,72.80
2019-04-11T06:13:18.586Z,72.40
2019-04-11T06:16:06.437Z,73.30
2019-04-11T06:19:04.017Z,72.90
2019-04-11T06:21:52.789Z,73.30
2019-04-11T06:24:41.209Z,71.50
2019-04-11T06:27:30.385Z,69.20
2019-04-11T06:30:22.084Z,64.80
2019-04-11T06:33:20.624Z,64.50
2019-04-11T06:36:09.612Z,61.30
2019-04-11T06:39:15.483Z,62.90
2019-04-11T06:42:07.639Z,65.30
2019-04-11T06:44:59.856Z,67.30
2019-04-11T06:48:01.125Z,69.00
2019-04-11T06:50:49.434Z,70.20
2019-04-11T06:53:38.114Z,69.00
2019-04-11T06:56:35.320Z,70.50
2019-04-11T06:59:40.684Z,72.90
2019-04-11T07:02:29.973Z,71.10
2019-04-11T07:05:18.301Z,66.80
2019-04-11T07:08:07.660Z,65.30
2019-04-11T07:10:59.120Z,64.90
2019-04-11T07:13:59.437Z,68.70
2019-04-11T07:17:07.432Z,70.10
2019-04-11T07:20:00.889Z,70.30
2019-04-11T07:23:05.879Z,72.70
2019-04-11T07:25:54.118Z,71.60
2019-04-11T15:36:02.892Z,52.00
2019-04-11T15:38:52.009Z,53.20
2019-04-11T15:41:40.408Z,52.70
2019-04-11T15:44:31.508Z,52.30
2019-04-11T15:47:19.877Z,52.90
2019-04-11T15:50:08.298Z,52.40
2019-04-11T15:52:56.481Z,52.50
2019-04-11T15:56:00.921Z,53.30
2019-04-11T15:59:05.584Z,52.80
2019-04-11T16:02:11.890Z,53.50
2019-04-11T16:05:02.747Z,52.60
2019-04-11T16:08:08.752Z,52.30
2019-04-11T16:11:02.918Z,52.40
2019-04-11T16:13:54.436Z,53.30
2019-04-11T16:16:42.660Z,52.70
2019-04-11T16:19:37.940Z,52.70
2019-04-11T16:22:29.327Z,52.30
2019-04-11T16:25:17.927Z,53.00
2019-04-11T16:28:21.404Z,52.50
2019-04-11T16:31:09.822Z,53.20
2019-04-11T16:34:01.757Z,52.90
2019-04-11T16:36:51.245Z,52.70
2019-04-11T16:39:45.374Z,52.50
2019-04-11T16:42:33.805Z,53.20
2019-04-11T16:45:37.285Z,53.20
2019-04-11T16:48:25.697Z,53.20
2019-04-11T16:51:12.942Z,53.60
2019-04-11T16:53:59.749Z,53.30
2019-04-11T16:56:46.360Z,53.80
2019-04-11T16:59:35.203Z,53.90
2019-04-11T17:02:21.864Z,53.90
2019-04-11T17:05:09.855Z,53.80
2019-04-11T17:08:04.177Z,54.20
2019-04-11T17:11:01.445Z,54.00
2019-04-11T17:13:48.007Z,54.20
2019-04-11T17:16:34.621Z,54.30
2019-04-11T17:19:21.485Z,54.70
2019-04-11T17:22:08.365Z,55.00
2019-04-11T17:24:54.983Z,55.00
2019-04-11T17:27:41.568Z,54.90
2019-04-11T17:30:28.417Z,54.90
2019-04-11T17:33:14.980Z,55.00
2019-04-11T17:36:02.861Z,55.30
2019-04-11T17:38:49.564Z,55.40
2019-04-11T17:41:41.812Z,55.60
2019-04-11T17:44:27.464Z,55.90
2019-04-11T17:47:14.181Z,56.10
2019-04-11T17:50:04.206Z,56.30
2019-04-11T17:52:49.748Z,56.20
2019-04-11T17:55:36.464Z,56.40
2019-04-11T17:58:27.062Z,56.30
2019-04-11T18:01:11.668Z,57.60
2019-04-11T18:03:58.196Z,61.80
2019-04-11T18:06:46.984Z,62.90
2019-04-11T18:09:33.236Z,58.80
2019-04-11T18:12:19.844Z,58.40
2019-04-11T18:15:07.587Z,59.30
2019-04-11T18:17:54.200Z,59.40
2019-04-11T18:20:41.025Z,59.30
2019-04-11T18:23:27.931Z,58.50
2019-04-11T18:26:14.449Z,60.20
2019-04-11T18:29:01.199Z,60.10
2019-04-11T18:31:47.924Z,59.10
2019-04-11T18:34:34.428Z,59.90
2019-04-11T18:37:20.984Z,60.50
2019-04-11T18:40:10.343Z,61.00
2019-04-11T18:42:56.276Z,60.90
2019-04-11T18:45:42.806Z,60.90
2019-04-11T18:48:30.596Z,60.80
2019-04-11T18:51:17.141Z,60.60
2019-04-11T18:54:03.920Z,61.10
2019-04-11T18:56:50.452Z,60.40
2019-04-11T18:59:37.268Z,61.40
2019-04-11T19:02:24.066Z,60.90
2019-04-11T19:05:13.447Z,60.70
2019-04-11T19:07:59.287Z,60.90
2019-04-11T19:10:46.096Z,60.80
2019-04-11T19:13:32.655Z,61.20
2019-04-11T19:16:19.312Z,61.50
2019-04-11T19:19:06.077Z,61.40
2019-04-11T19:21:52.955Z,61.60
2019-04-11T19:24:41.504Z,61.40
2019-04-11T19:27:27.880Z,62.30
2019-04-11T19:30:14.388Z,62.50
2019-04-11T19:33:01.291Z,63.00
2019-04-11T19:35:47.830Z,62.50
2019-04-11T19:38:36.349Z,62.90
2019-04-11T19:41:22.957Z,63.00
2019-04-11T19:44:09.792Z,63.30
2019-04-11T19:46:56.293Z,64.40
2019-04-11T19:49:46.945Z,64.70
2019-04-11T19:52:45.038Z,64.80
2019-04-11T19:55:36.089Z,64.90
2019-04-11T19:58:24.208Z,64.70
2019-04-11T20:01:10.727Z,64.10
2019-04-11T20:03:57.688Z,64.80
2019-04-11T20:06:44.294Z,65.50
2019-04-11T20:09:30.996Z,66.40
2019-04-11T20:12:17.607Z,66.30
2019-04-11T20:15:05.122Z,66.00
2019-04-11T20:17:52.547Z,67.00
2019-04-11T20:20:39.158Z,67.50
2019-04-11T20:23:26.143Z,67.80
2019-04-11T20:26:12.692Z,67.70
2019-04-11T20:28:59.377Z,68.40
2019-04-11T20:31:45.889Z,68.40
2019-04-11T20:34:32.633Z,68.70
2019-04-11T20:37:19.248Z,69.40
2019-04-11T20:40:06.046Z,68.80
2019-04-11T20:42:54.341Z,69.20
2019-04-11T20:45:42.232Z,69.50
2019-04-11T20:48:30.947Z,69.50
2019-04-11T20:51:17.735Z,69.90
2019-04-11T20:54:07.949Z,70.40
2019-04-11T20:56:54.548Z,70.40
2019-04-11T20:59:42.444Z,70.80
2019-04-11T21:02:29.354Z,71.00
2019-04-11T21:05:16.150Z,71.10
2019-04-11T21:08:03.605Z,72.50
2019-04-11T21:10:50.270Z,71.70
2019-04-11T21:13:38.485Z,72.20
2019-04-11T21:16:25.308Z,72.40
2019-04-11T21:19:11.868Z,72.50
2019-04-11T21:21:58.639Z,73.00
2019-04-11T21:24:45.280Z,73.00
2019-04-11T21:27:32.144Z,73.40
2019-04-11T21:30:19.036Z,73.30
2019-04-11T21:33:05.588Z,73.80
2019-04-11T21:35:52.388Z,74.20
2019-04-11T21:38:38.985Z,74.60
2019-04-11T21:41:25.507Z,75.00
2019-04-11T21:44:12.010Z,75.40
2019-04-11T21:46:58.499Z,75.70
2019-04-11T21:49:45.360Z,75.90
2019-04-11T21:52:32.286Z,76.40
2019-04-11T21:55:18.889Z,77.70
2019-04-11T21:58:05.759Z,77.70
2019-04-11T22:00:54.310Z,77.70
2019-04-11T22:03:40.611Z,78.50
2019-04-11T22:06:28.041Z,79.00
2019-04-11T22:09:15.917Z,79.40
2019-04-11T22:12:02.813Z,80.40
2019-04-11T22:14:49.401Z,80.60
2019-04-11T22:17:36.012Z,81.50
2019-04-11T22:20:22.681Z,81.80
2019-04-11T22:23:09.150Z,82.50
2019-04-11T22:25:55.783Z,83.20
2019-04-11T22:28:42.404Z,83.10
2019-04-11T22:31:29.132Z,84.10
2019-04-11T22:34:17.336Z,85.00
2019-04-11T22:37:04.162Z,86.00
2019-04-11T22:39:51.013Z,86.70
2019-04-11T22:42:37.574Z,87.30
2019-04-11T22:45:24.244Z,88.70
2019-04-11T22:48:15.356Z,90.00
2019-04-11T22:51:01.923Z,90.10
2019-04-11T22:53:59.754Z,90.30
2019-04-11T22:56:37.137Z,90.90
2019-04-11T22:59:23.955Z,91.10
2019-04-11T23:02:12.168Z,91.10
2019-04-11T23:04:58.708Z,91.10
2019-04-11T23:07:45.865Z,91.50
2019-04-11T23:10:33.528Z,92.10
2019-04-11T23:13:20.117Z,92.00
2019-04-11T23:16:06.639Z,92.70
2019-04-11T23:18:53.440Z,93.10
2019-04-11T23:21:42.183Z,93.40
2019-04-11T23:24:29.372Z,93.70
2019-04-11T23:27:16.133Z,94.00
2019-04-11T23:30:03.168Z,94.30
2019-04-11T23:32:51.670Z,94.90
2019-04-11T23:35:38.576Z,94.70
2019-04-11T23:38:25.446Z,95.00
2019-04-11T23:41:12.028Z,95.50
2019-04-11T23:43:58.601Z,95.80
2019-04-11T23:46:45.155Z,96.00
2019-04-11T23:49:31.860Z,96.50
2019-04-11T23:52:18.402Z,96.70
2019-04-11T23:55:04.953Z,97.20
2019-04-11T23:57:51.543Z,97.70
